createdAt,value
2022-11-22T00:02:00.208Z,63.44
2022-11-22T00:04:28.536Z,66.40
2022-11-22T00:06:56.800Z,62.91
2022-11-22T00:09:25.497Z,57.76
2022-11-22T00:11:54.757Z,55.18
2022-11-22T00:14:23.574Z,55.52
2022-11-22T00:16:57.728Z,58.14
2022-11-22T00:19:31.575Z,59.00
2022-11-22T00:22:04.330Z,62.46
2022-11-22T00:24:35.415Z,68.56
2022-11-22T00:27:03.790Z,68.57
2022-11-22T00:29:32.374Z,64.03
2022-11-22T00:32:00.866Z,61.63
2022-11-22T00:34:29.339Z,58.01
2022-11-22T00:36:57.720Z,55.23
2022-11-22T00:39:26.242Z,55.10
2022-11-22T00:41:54.687Z,56.01
2022-11-22T00:44:23.062Z,59.18
2022-11-22T00:46:51.538Z,60.88
2022-11-22T00:49:19.918Z,65.24
2022-11-22T00:51:48.300Z,68.31
2022-11-22T00:54:16.676Z,63.17
2022-11-22T00:56:45.037Z,62.47
2022-11-22T00:59:13.838Z,58.11
2022-11-22T01:01:42.432Z,55.32
2022-11-22T01:04:10.907Z,57.54
2022-11-22T01:06:39.706Z,59.49
2022-11-22T01:09:08.166Z,62.75
2022-11-22T01:11:36.423Z,65.44
2022-11-22T01:14:04.845Z,65.16
2022-11-22T01:16:33.119Z,64.56
2022-11-22T01:19:01.397Z,63.36
2022-11-22T01:21:29.578Z,62.28
2022-11-22T01:23:57.948Z,58.16
2022-11-22T01:26:26.562Z,55.52
2022-11-22T01:28:55.498Z,55.71
2022-11-22T01:31:23.684Z,58.53
2022-11-22T01:33:52.047Z,60.74
2022-11-22T01:36:21.040Z,63.66
2022-11-22T01:38:49.731Z,65.53
2022-11-22T01:41:18.093Z,63.59
2022-11-22T01:43:46.496Z,61.93
2022-11-22T01:46:37.507Z,58.56
2022-11-22T01:49:19.898Z,57.12
2022-11-22T01:51:51.463Z,59.60
2022-11-22T01:54:24.591Z,61.55
2022-11-22T01:56:58.887Z,64.95
2022-11-22T01:59:31.079Z,64.22
2022-11-22T02:02:01.322Z,63.12
2022-11-22T02:04:32.696Z,62.77
2022-11-22T02:07:13.640Z,62.71
2022-11-22T02:09:44.114Z,63.41
2022-11-22T02:12:13.795Z,63.07
2022-11-22T02:14:43.538Z,63.12
2022-11-22T02:17:11.739Z,61.93
2022-11-22T02:19:45.856Z,61.51
2022-11-22T02:22:35.802Z,62.37
2022-11-22T02:25:30.150Z,62.90
2022-11-22T02:27:59.486Z,64.61
2022-11-22T02:30:28.161Z,62.37
2022-11-22T02:32:56.659Z,60.02
2022-11-22T02:35:28.209Z,56.10
2022-11-22T02:38:06.412Z,54.12
2022-11-22T02:40:40.541Z,54.91
2022-11-22T02:43:14.511Z,57.57
2022-11-22T02:45:43.110Z,59.82
2022-11-22T02:48:14.324Z,62.82
2022-11-22T02:50:43.651Z,66.60
2022-11-22T02:53:12.572Z,64.40
2022-11-22T02:55:41.198Z,63.11
2022-11-22T02:58:09.731Z,61.02
2022-11-22T03:00:39.638Z,60.20
2022-11-22T03:03:07.977Z,60.02
2022-11-22T03:05:36.316Z,59.85
2022-11-22T03:08:04.526Z,57.97
2022-11-22T03:10:33.063Z,58.54
2022-11-22T03:13:01.441Z,61.43
2022-11-22T03:15:29.809Z,63.93
2022-11-22T03:18:02.297Z,64.16
2022-11-22T03:20:31.598Z,63.56
2022-11-22T03:23:03.348Z,63.84
2022-11-22T03:25:31.718Z,65.15
2022-11-22T03:28:00.110Z,66.07
2022-11-22T03:30:28.483Z,65.82
2022-11-22T03:32:56.753Z,64.04
2022-11-22T03:35:25.235Z,64.86
2022-11-22T03:37:53.711Z,64.56
2022-11-22T03:40:22.349Z,65.13
2022-11-22T03:42:50.630Z,65.53
2022-11-22T03:45:18.869Z,63.89
2022-11-22T03:47:47.033Z,62.33
2022-11-22T03:50:16.340Z,60.14
2022-11-22T03:52:44.537Z,56.92
2022-11-22T03:55:12.673Z,55.18
2022-11-22T03:57:40.951Z,57.96
2022-11-22T04:00:09.917Z,60.42
2022-11-22T04:02:40.126Z,63.23
2022-11-22T04:05:08.857Z,65.68
2022-11-22T04:07:37.271Z,65.23
2022-11-22T04:10:07.156Z,66.09
2022-11-22T04:12:35.927Z,66.97
2022-11-22T04:15:07.812Z,62.98
2022-11-22T04:17:41.408Z,61.56
2022-11-22T04:20:34.887Z,61.28
2022-11-22T04:23:10.437Z,59.41
2022-11-22T04:25:41.796Z,57.94
2022-11-22T04:28:11.790Z,58.23
2022-11-22T04:30:59.401Z,59.82
2022-11-22T04:33:28.141Z,64.30
2022-11-22T04:35:56.639Z,64.95
2022-11-22T04:38:25.093Z,65.21
2022-11-22T04:40:54.770Z,65.65
2022-11-22T04:43:47.936Z,65.31
2022-11-22T04:46:16.836Z,64.93
2022-11-22T04:48:45.205Z,62.82
2022-11-22T04:51:34.268Z,61.64
2022-11-22T04:54:03.043Z,60.82
2022-11-22T04:56:31.322Z,61.40
2022-11-22T04:58:59.490Z,57.64
2022-11-22T05:01:27.817Z,56.04
2022-11-22T05:03:56.255Z,57.33
2022-11-22T05:06:24.610Z,57.22
2022-11-22T05:08:52.891Z,60.98
2022-11-22T05:11:22.110Z,64.96
2022-11-22T05:13:50.807Z,67.72
2022-11-22T05:16:19.618Z,65.35
2022-11-22T05:18:59.623Z,63.43
2022-11-22T05:21:30.265Z,61.22
2022-11-22T05:23:59.058Z,60.18
2022-11-22T05:26:28.471Z,60.02
2022-11-22T05:29:00.581Z,58.16
2022-11-22T05:31:29.219Z,57.15
2022-11-22T05:33:57.877Z,59.01
2022-11-22T05:36:26.563Z,59.87
2022-11-22T05:38:55.372Z,60.32
2022-11-22T05:41:23.653Z,62.69
2022-11-22T05:43:55.613Z,65.01
2022-11-22T05:46:29.221Z,66.15
2022-11-22T05:48:59.789Z,66.51
2022-11-22T05:51:34.618Z,66.72
2022-11-22T05:54:05.034Z,66.60
2022-11-22T05:56:34.010Z,65.16
2022-11-22T05:59:02.485Z,63.54
2022-11-22T06:01:30.978Z,62.92
2022-11-22T06:03:59.430Z,62.12
2022-11-22T06:06:27.720Z,61.37
2022-11-22T06:08:57.169Z,60.66
2022-11-22T06:11:28.267Z,60.54
2022-11-22T06:14:03.642Z,60.04
2022-11-22T06:16:32.436Z,60.13
2022-11-22T06:19:01.289Z,60.07
2022-11-22T06:21:31.646Z,60.21
2022-11-22T06:24:00.702Z,59.73
2022-11-22T06:26:32.417Z,59.57
2022-11-22T06:29:04.945Z,59.71
2022-11-22T06:31:33.723Z,60.63
2022-11-22T06:34:02.830Z,61.30
2022-11-22T06:36:33.893Z,58.80
2022-11-22T06:39:05.418Z,56.72
2022-11-22T06:41:36.896Z,58.75
2022-11-22T06:44:07.380Z,61.79
2022-11-22T06:46:36.999Z,64.74
2022-11-22T06:49:06.829Z,64.84
2022-11-22T06:51:35.718Z,65.35
2022-11-22T06:54:05.196Z,65.49
2022-11-22T06:56:38.788Z,64.77
2022-11-22T06:59:10.669Z,64.68
2022-11-22T07:01:39.707Z,64.75
2022-11-22T07:04:09.399Z,65.12
2022-11-22T07:06:39.417Z,65.14
2022-11-22T07:09:12.725Z,64.09
2022-11-22T07:11:42.093Z,63.73
2022-11-22T07:14:11.815Z,63.97
2022-11-22T07:16:41.028Z,63.35
2022-11-22T07:19:11.053Z,63.34
2022-11-22T07:21:40.647Z,61.35
2022-11-22T07:24:11.991Z,60.74
2022-11-22T07:26:42.215Z,60.57
2022-11-22T07:29:11.023Z,60.91
2022-11-22T07:31:41.492Z,61.86
2022-11-22T07:34:11.138Z,62.51
2022-11-22T07:36:40.844Z,62.61
2022-11-22T07:39:10.307Z,63.19
2022-11-22T07:41:39.754Z,63.81
2022-11-22T07:44:08.442Z,62.78
2022-11-22T07:46:36.917Z,62.94
2022-11-22T07:49:05.829Z,62.38
2022-11-22T07:51:34.142Z,61.77
2022-11-22T07:54:06.397Z,62.09
2022-11-22T07:56:40.605Z,62.25
2022-11-22T07:59:09.948Z,62.76
2022-11-22T08:01:38.976Z,63.78
2022-11-22T08:04:07.312Z,63.68
2022-11-22T08:06:35.692Z,64.22
2022-11-22T08:09:13.026Z,64.84
2022-11-22T08:11:45.609Z,65.29
2022-11-22T08:14:18.531Z,65.13
2022-11-22T08:16:52.149Z,66.46
2022-11-22T08:19:20.932Z,66.09
2022-11-22T08:21:52.715Z,63.78
2022-11-22T08:24:25.675Z,63.07
2022-11-22T08:26:54.368Z,63.33
2022-11-22T08:29:23.486Z,60.67
2022-11-22T08:31:52.783Z,60.50
2022-11-22T08:34:21.861Z,60.32
2022-11-22T08:36:50.549Z,61.05
2022-11-22T08:39:19.440Z,62.08
2022-11-22T08:41:48.977Z,62.94
2022-11-22T08:44:17.527Z,64.69
2022-11-22T08:46:46.127Z,62.58
2022-11-22T08:49:14.801Z,62.10
2022-11-22T08:51:45.226Z,60.79
2022-11-22T08:54:15.448Z,57.40
2022-11-22T08:56:44.551Z,56.06
2022-11-22T08:59:13.227Z,57.53
2022-11-22T09:01:41.693Z,59.34
2022-11-22T09:04:10.927Z,60.21
2022-11-22T09:09:37.325Z,69.59
2022-11-22T09:12:07.160Z,68.63
2022-11-22T09:14:35.763Z,63.76
2022-11-22T09:17:06.076Z,61.78
2022-11-22T09:19:34.588Z,61.51
2022-11-22T09:22:03.066Z,61.76
2022-11-22T09:24:31.757Z,61.51
2022-11-22T09:27:00.203Z,60.95
2022-11-22T09:29:29.321Z,60.91
2022-11-22T09:31:59.943Z,60.31
2022-11-22T09:34:28.823Z,59.93
2022-11-22T09:36:57.636Z,57.62
2022-11-22T09:39:26.142Z,56.99
2022-11-22T09:42:19.770Z,58.52
2022-11-22T09:45:23.617Z,59.16
2022-11-22T09:48:10.603Z,63.96
2022-11-22T09:50:57.614Z,65.65
2022-11-22T09:53:36.417Z,64.37
2022-11-22T09:56:11.912Z,62.92
2022-11-22T09:58:51.803Z,62.96
2022-11-22T10:01:23.972Z,62.58
2022-11-22T10:03:55.991Z,62.81
2022-11-22T10:06:31.616Z,64.03
2022-11-22T10:09:11.641Z,61.66
2022-11-22T10:12:05.047Z,57.42
2022-11-22T10:15:03.712Z,55.17
2022-11-22T10:17:55.567Z,57.77
2022-11-22T10:20:30.107Z,61.14
2022-11-22T10:23:00.647Z,65.43
2022-11-22T10:25:44.983Z,67.52
2022-11-22T10:28:44.766Z,64.60
2022-11-22T10:31:37.149Z,61.26
2022-11-22T10:34:12.678Z,60.81
2022-11-22T10:37:24.335Z,61.25
2022-11-22T10:40:15.700Z,56.20
2022-11-22T10:43:15.010Z,56.66
2022-11-22T10:46:20.044Z,60.31
2022-11-22T10:49:40.139Z,63.83
2022-11-22T10:52:30.207Z,65.66
2022-11-22T10:55:22.519Z,65.07
2022-11-22T10:57:56.614Z,62.52
2022-11-22T11:00:26.659Z,61.96
2022-11-22T11:03:23.725Z,61.76
2022-11-22T11:06:43.461Z,61.34
2022-11-22T11:10:02.799Z,63.83
2022-11-22T11:11:55.397Z,61.46
2022-11-22T11:14:31.991Z,57.43
2022-11-22T11:17:01.680Z,54.08
2022-11-22T11:19:36.818Z,55.51
2022-11-22T11:22:08.356Z,59.73
2022-11-22T11:24:40.852Z,63.78
2022-11-22T11:27:11.766Z,63.02
2022-11-22T11:29:47.832Z,64.56
2022-11-22T11:32:20.039Z,65.01
2022-11-22T11:35:00.489Z,65.88
2022-11-22T11:37:37.263Z,67.16
2022-11-22T11:40:25.090Z,70.09
2022-11-22T11:43:18.961Z,66.12
2022-11-22T11:45:48.389Z,62.99
2022-11-22T11:48:27.288Z,62.61
2022-11-22T11:51:15.336Z,61.84
2022-11-22T11:53:53.844Z,57.17
2022-11-22T11:56:31.099Z,54.99
2022-11-22T11:59:03.909Z,57.36
2022-11-22T12:01:38.796Z,60.34
2022-11-22T12:04:23.724Z,64.66
2022-11-22T12:07:02.938Z,66.53
2022-11-22T12:09:45.256Z,63.74
2022-11-22T12:12:38.228Z,61.41
2022-11-22T12:15:19.804Z,57.02
2022-11-22T12:18:07.224Z,57.44
2022-11-22T12:21:02.951Z,57.56
2022-11-22T12:23:49.463Z,60.76
2022-11-22T12:26:21.242Z,66.37
2022-11-22T12:28:50.428Z,65.50
2022-11-22T12:31:40.300Z,63.79
2022-11-22T12:34:20.775Z,61.28
2022-11-22T12:37:06.191Z,56.33
2022-11-22T12:39:37.265Z,54.10
2022-11-22T12:42:22.684Z,56.41
2022-11-22T12:45:01.570Z,56.46
2022-11-22T12:47:37.640Z,57.76
2022-11-22T12:50:44.732Z,60.94
2022-11-22T12:53:15.877Z,67.19
2022-11-22T12:56:07.485Z,67.95
2022-11-22T12:58:54.405Z,63.44
2022-11-22T13:01:29.503Z,63.00
2022-11-22T13:04:09.894Z,62.17
2022-11-22T13:06:55.307Z,57.85
2022-11-22T13:09:36.470Z,55.88
2022-11-22T13:12:26.756Z,58.34
2022-11-22T13:14:59.227Z,59.72
2022-11-22T13:17:38.983Z,63.56
2022-11-22T13:20:20.974Z,66.09
2022-11-22T13:23:20.368Z,64.76
2022-11-22T13:26:17.229Z,61.24
2022-11-22T13:28:46.680Z,60.82
2022-11-22T13:31:18.977Z,60.18
2022-11-22T13:34:01.903Z,58.75
2022-11-22T13:36:30.803Z,56.78
2022-11-22T13:39:02.998Z,58.07
2022-11-22T13:41:42.077Z,59.70
2022-11-22T13:44:52.163Z,63.58
2022-11-22T13:47:23.925Z,67.64
2022-11-22T13:49:54.418Z,65.77
2022-11-22T13:52:25.898Z,63.92
2022-11-22T13:54:57.234Z,60.30
2022-11-22T13:57:42.997Z,56.07
2022-11-22T14:00:11.922Z,54.88
2022-11-22T14:02:51.735Z,55.90
2022-11-22T14:05:36.552Z,56.98
2022-11-22T14:08:31.680Z,57.23
2022-11-22T14:11:26.440Z,58.14
2022-11-22T14:14:47.176Z,64.40
2022-11-22T14:17:30.812Z,66.74
2022-11-22T14:20:21.087Z,63.27
2022-11-22T14:22:56.422Z,61.93
2022-11-22T14:26:01.322Z,62.89
2022-11-22T14:29:01.411Z,62.51
2022-11-22T14:31:36.692Z,61.89
2022-11-22T14:34:23.541Z,61.38
2022-11-22T14:37:10.973Z,60.46
2022-11-22T14:39:45.505Z,61.53
2022-11-22T14:42:36.186Z,56.41
2022-11-22T14:45:10.831Z,54.45
2022-11-22T14:48:02.264Z,55.48
2022-11-22T14:50:36.751Z,56.81
2022-11-22T14:53:30.112Z,57.66
2022-11-22T14:56:05.433Z,58.22
2022-11-22T14:58:39.698Z,59.48
2022-11-22T15:01:27.675Z,63.38
2022-11-22T15:09:13.693Z,67.31
2022-11-22T15:09:21.467Z,66.21
2022-11-22T15:09:54.399Z,65.38
2022-11-22T15:12:46.826Z,62.87
2022-11-22T15:59:44.989Z,65.16
2022-11-22T16:02:19.254Z,65.35
2022-11-22T16:06:05.252Z,70.47
2022-11-22T16:07:48.476Z,67.36
2022-11-22T16:10:20.272Z,62.79
2022-11-22T16:12:49.895Z,60.35
2022-11-22T16:15:28.825Z,56.56
2022-11-22T16:18:24.980Z,55.55
2022-11-22T16:21:29.098Z,55.93
2022-11-22T16:24:20.349Z,57.24
2022-11-22T16:27:15.480Z,58.11
2022-11-22T16:29:51.476Z,58.78
2022-11-22T16:32:20.354Z,63.85
2022-11-22T16:34:59.002Z,65.42
2022-11-22T16:37:47.857Z,64.00
2022-11-22T16:40:18.172Z,65.87
2022-11-22T16:42:47.480Z,65.77
2022-11-22T16:45:19.170Z,65.98
2022-11-22T16:47:58.644Z,64.29
2022-11-22T16:50:39.342Z,61.28
2022-11-22T16:53:17.140Z,58.22
2022-11-22T16:55:46.024Z,56.26
2022-11-22T16:58:21.202Z,56.74
2022-11-22T17:00:51.170Z,58.65
2022-11-22T17:03:27.566Z,63.30
2022-11-22T17:05:56.358Z,64.62
2022-11-22T17:08:25.143Z,64.54
2022-11-22T17:10:53.712Z,63.76
2022-11-22T17:13:28.533Z,64.76
2022-11-22T17:15:58.143Z,64.30
2022-11-22T17:18:26.617Z,61.96
2022-11-22T17:20:55.349Z,57.30
2022-11-22T17:23:36.176Z,56.06
2022-11-22T17:26:06.312Z,55.92
2022-11-22T17:28:35.713Z,57.09
2022-11-22T17:31:13.850Z,59.32
2022-11-22T17:33:49.981Z,64.36
2022-11-22T17:36:33.300Z,67.97
2022-11-22T17:39:06.303Z,63.72
2022-11-22T17:41:35.794Z,57.36
2022-11-22T17:44:06.612Z,55.34
2022-11-22T17:46:39.148Z,55.73
2022-11-22T17:49:14.119Z,56.46
2022-11-22T17:51:47.035Z,59.23
2022-11-22T17:54:16.326Z,59.78
2022-11-22T17:56:46.678Z,64.00
2022-11-22T17:59:15.314Z,69.14
2022-11-22T18:01:44.978Z,64.68
2022-11-22T18:04:14.969Z,62.17
2022-11-22T18:06:44.819Z,61.16
2022-11-22T18:09:14.691Z,56.42
2022-11-22T18:11:46.179Z,55.17
2022-11-22T18:14:18.898Z,56.39
2022-11-22T18:16:50.158Z,57.31
2022-11-22T18:19:20.296Z,58.34
2022-11-22T18:21:50.601Z,59.05
2022-11-22T18:24:20.403Z,59.76
2022-11-22T18:26:52.951Z,64.35
2022-11-22T18:29:41.773Z,68.01
2022-11-22T18:32:13.494Z,64.81
2022-11-22T18:34:44.675Z,61.29
2022-11-22T18:37:15.301Z,57.99
2022-11-22T18:39:45.269Z,56.79
2022-11-22T18:42:17.505Z,57.33
2022-11-22T18:44:47.710Z,58.02
2022-11-22T18:47:17.916Z,59.09
2022-11-22T18:49:49.460Z,59.87
2022-11-22T18:52:23.652Z,61.78
2022-11-22T18:54:57.153Z,64.48
2022-11-22T18:57:29.805Z,64.81
2022-11-22T19:00:00.302Z,65.63
2022-11-22T19:02:30.728Z,67.85
2022-11-22T19:05:02.925Z,63.78
2022-11-22T19:07:33.384Z,60.19
2022-11-22T19:10:02.941Z,56.25
2022-11-22T19:12:32.648Z,55.50
2022-11-22T19:15:01.441Z,56.88
2022-11-22T19:17:31.650Z,57.81
2022-11-22T19:20:00.848Z,58.52
2022-11-22T19:22:30.863Z,59.23
2022-11-22T19:24:59.749Z,59.93
2022-11-22T19:27:28.566Z,63.11
2022-11-22T19:29:58.224Z,66.52
2022-11-22T19:32:28.261Z,65.29
2022-11-22T19:34:57.063Z,63.28
2022-11-22T19:37:25.834Z,60.14
2022-11-22T19:39:54.680Z,60.03
2022-11-22T19:42:23.785Z,61.12
2022-11-22T19:44:52.620Z,60.20
2022-11-22T19:47:21.626Z,57.32
2022-11-22T19:49:51.319Z,55.98
2022-11-22T19:52:21.007Z,56.91
2022-11-22T19:54:51.424Z,57.79
2022-11-22T19:57:22.749Z,58.53
2022-11-22T19:59:59.909Z,59.36
2022-11-22T20:02:30.685Z,60.15
2022-11-22T20:05:00.376Z,63.00
2022-11-22T20:07:30.416Z,66.72
2022-11-22T20:09:59.952Z,65.50
2022-11-22T20:12:29.966Z,64.59
2022-11-22T20:14:59.083Z,67.56
2022-11-22T20:17:30.801Z,67.85
2022-11-22T20:20:01.137Z,63.46
2022-11-22T20:22:31.904Z,60.26
2022-11-22T20:25:02.646Z,57.36
2022-11-22T20:27:32.171Z,56.33
2022-11-22T20:30:01.848Z,56.98
2022-11-22T20:32:32.576Z,57.83
2022-11-22T20:35:02.286Z,58.81
2022-11-22T20:37:33.865Z,60.38
2022-11-22T20:40:05.246Z,65.31
2022-11-22T20:42:35.366Z,68.68
2022-11-22T20:45:09.323Z,63.24
2022-11-22T20:47:39.427Z,57.45
2022-11-22T20:50:09.689Z,55.90
2022-11-22T20:52:39.445Z,56.51
2022-11-22T20:55:11.074Z,57.14
2022-11-22T20:57:41.933Z,58.74
2022-11-22T21:00:12.711Z,59.63
2022-11-22T21:02:42.227Z,62.68
2022-11-22T21:05:12.520Z,68.71
2022-11-22T21:07:42.481Z,67.52
2022-11-22T21:10:12.786Z,62.25
2022-11-22T21:12:43.574Z,57.14
2022-11-22T21:15:16.031Z,55.76
2022-11-22T21:18:17.065Z,56.72
2022-11-22T21:20:37.548Z,57.74
2022-11-22T21:23:06.784Z,59.43
2022-11-22T21:25:36.595Z,59.90
2022-11-22T21:28:07.210Z,63.19
2022-11-22T21:30:37.285Z,64.95
2022-11-22T21:33:06.492Z,64.62
2022-11-22T21:35:37.653Z,64.50
2022-11-22T21:38:06.606Z,64.75
2022-11-22T21:40:35.705Z,65.16
2022-11-22T21:43:04.561Z,65.02
2022-11-22T21:45:34.003Z,66.06
2022-11-22T21:48:04.936Z,65.48
2022-11-22T21:50:33.631Z,64.58
2022-11-22T21:53:02.644Z,65.19
2022-11-22T21:55:31.500Z,65.11
2022-11-22T21:58:01.270Z,65.30
2022-11-22T22:00:30.000Z,65.82
2022-11-22T22:02:58.608Z,66.39
2022-11-22T22:05:27.394Z,65.52
2022-11-22T22:07:55.902Z,65.50
2022-11-22T22:10:24.440Z,64.93
2022-11-22T22:12:53.023Z,65.29
2022-11-22T22:15:22.635Z,65.68
2022-11-22T22:17:55.717Z,65.93
2022-11-22T22:20:24.520Z,66.22
2022-11-22T22:22:53.095Z,66.24
2022-11-22T22:25:21.981Z,66.60
2022-11-22T22:27:50.478Z,67.09
2022-11-22T22:30:23.346Z,67.23
2022-11-22T22:32:52.249Z,66.38
2022-11-22T22:35:21.618Z,68.19
2022-11-22T22:37:50.335Z,68.80
2022-11-22T22:40:21.781Z,66.89
2022-11-22T22:42:50.876Z,65.62
2022-11-22T22:45:20.511Z,64.48
2022-11-22T22:47:49.176Z,64.25
2022-11-22T22:50:17.883Z,64.21
2022-11-22T22:52:46.394Z,63.75
2022-11-22T22:55:14.720Z,63.61
2022-11-22T22:57:42.910Z,64.93
2022-11-22T23:00:12.088Z,64.26
2022-11-22T23:02:41.253Z,63.18
2022-11-22T23:05:09.881Z,60.52
2022-11-22T23:07:43.699Z,56.30
2022-11-22T23:10:12.357Z,55.47
2022-11-22T23:12:40.710Z,56.94
2022-11-22T23:15:09.421Z,58.04
2022-11-22T23:17:37.796Z,58.91
2022-11-22T23:20:06.692Z,59.79
2022-11-22T23:22:34.940Z,60.13
2022-11-22T23:25:03.455Z,64.02
2022-11-22T23:27:32.045Z,66.16
2022-11-22T23:30:00.416Z,64.40
2022-11-22T23:32:32.069Z,64.63
2022-11-22T23:35:00.565Z,65.98
2022-11-22T23:37:28.999Z,65.96
2022-11-22T23:39:57.313Z,66.36
2022-11-22T23:42:25.595Z,65.30
2022-11-22T23:44:54.273Z,64.04
2022-11-22T23:47:23.884Z,62.69
2022-11-22T23:49:52.248Z,61.71
2022-11-22T23:52:20.639Z,61.64
2022-11-22T23:54:48.986Z,61.46
2022-11-22T23:57:17.386Z,61.02
2022-11-22T23:59:45.885Z,61.09
